createdAt,value
2022-10-11T00:01:48.060Z,98833.13
2022-10-11T00:04:14.792Z,98825.28
2022-10-11T00:06:43.643Z,98824.41
2022-10-11T00:09:14.903Z,98830.53
2022-10-11T00:11:42.149Z,98827.22
2022-10-11T00:14:08.892Z,98823.41
2022-10-11T00:16:35.868Z,98821.19
2022-10-11T00:19:02.624Z,98826.53
2022-10-11T00:21:30.670Z,98828.56
2022-10-11T00:23:57.420Z,98817.09
2022-10-11T00:26:24.137Z,98824.91
2022-10-11T00:28:52.738Z,98824.91
2022-10-11T00:31:20.471Z,98812.81
2022-10-11T00:33:47.469Z,98816.94
2022-10-11T00:36:16.792Z,98818.56
2022-10-11T00:38:44.691Z,98807.38
2022-10-11T00:41:11.941Z,98823.56
2022-10-11T00:43:38.907Z,98828.00
2022-10-11T00:46:13.595Z,98817.63
2022-10-11T00:48:46.019Z,98825.53
2022-10-11T00:51:21.035Z,98821.25
2022-10-11T00:53:50.809Z,98816.22
2022-10-11T00:56:23.816Z,98822.91
2022-10-11T00:58:51.038Z,98813.19
2022-10-11T01:01:17.699Z,98819.09
2022-10-11T01:03:44.979Z,98823.50
2022-10-11T01:06:11.655Z,98828.69
2022-10-11T01:08:38.880Z,98823.50
2022-10-11T01:11:05.824Z,98824.03
2022-10-11T01:13:38.113Z,98827.38
2022-10-11T01:16:29.960Z,98825.44
2022-10-11T01:19:14.536Z,98819.16
2022-10-11T01:21:52.199Z,98818.19
2022-10-11T01:24:53.039Z,98820.94
2022-10-11T01:27:45.221Z,98821.94
2022-10-11T01:30:31.780Z,98824.81
2022-10-11T01:33:04.272Z,98821.72
2022-10-11T01:35:35.517Z,98799.53
2022-10-11T01:38:18.082Z,98807.00
2022-10-11T01:40:56.460Z,98809.47
2022-10-11T01:43:24.627Z,98812.88
2022-10-11T01:45:55.191Z,98814.44
2022-10-11T01:48:22.028Z,98802.31
2022-10-11T01:50:58.612Z,98812.47
2022-10-11T01:54:04.241Z,98814.44
2022-10-11T01:56:55.254Z,98814.44
2022-10-11T01:59:28.563Z,98809.47
2022-10-11T02:01:58.213Z,98807.13
2022-10-11T02:04:36.192Z,98805.66
2022-10-11T02:07:33.669Z,98794.81
2022-10-11T02:10:24.661Z,98802.94
2022-10-11T02:13:02.421Z,98808.16
2022-10-11T02:15:32.889Z,98803.22
2022-10-11T02:18:03.325Z,98800.00
2022-10-11T02:20:33.706Z,98800.31
2022-10-11T02:23:08.145Z,98803.19
2022-10-11T02:25:36.515Z,98813.09
2022-10-11T02:28:11.344Z,98812.34
2022-10-11T02:30:42.117Z,98808.44
2022-10-11T02:33:13.125Z,98810.88
2022-10-11T02:35:47.224Z,98807.84
2022-10-11T02:38:24.942Z,98815.66
2022-10-11T02:41:01.221Z,98810.16
2022-10-11T02:43:41.590Z,98816.06
2022-10-11T02:46:09.998Z,98815.91
2022-10-11T02:48:37.511Z,98821.91
2022-10-11T02:51:04.920Z,98810.72
2022-10-11T02:53:32.332Z,98817.75
2022-10-11T02:55:59.129Z,98812.97
2022-10-11T02:58:25.926Z,98834.53
2022-10-11T03:00:52.642Z,98829.31
2022-10-11T03:03:19.368Z,98829.41
2022-10-11T03:05:46.141Z,98827.72
2022-10-11T03:08:14.487Z,98830.03
2022-10-11T03:10:41.984Z,98831.56
2022-10-11T03:13:09.075Z,98838.41
2022-10-11T03:15:35.856Z,98835.94
2022-10-11T03:18:02.576Z,98839.44
2022-10-11T03:20:29.268Z,98839.44
2022-10-11T03:22:56.007Z,98843.84
2022-10-11T03:25:22.676Z,98842.06
2022-10-11T03:27:49.391Z,98843.69
2022-10-11T03:30:18.290Z,98831.91
2022-10-11T03:32:45.562Z,98849.81
2022-10-11T03:35:12.428Z,98847.34
2022-10-11T03:37:39.131Z,98849.81
2022-10-11T03:40:08.405Z,98857.56
2022-10-11T03:42:36.048Z,98853.47
2022-10-11T03:45:05.110Z,98864.78
2022-10-11T03:47:32.323Z,98863.16
2022-10-11T03:49:59.020Z,98859.75
2022-10-11T03:52:25.764Z,98856.25
2022-10-11T03:54:52.690Z,98870.28
2022-10-11T03:57:19.643Z,98860.91
2022-10-11T03:59:46.373Z,98866.41
2022-10-11T04:02:13.209Z,98870.81
2022-10-11T04:04:40.001Z,98860.22
2022-10-11T04:07:06.703Z,98863.59
2022-10-11T04:09:33.655Z,98868.75
2022-10-11T04:12:00.900Z,98873.94
2022-10-11T04:14:27.451Z,98876.56
2022-10-11T04:16:56.420Z,98861.22
2022-10-11T04:19:26.733Z,98870.81
2022-10-11T04:21:53.425Z,98873.47
2022-10-11T04:24:20.342Z,98869.91
2022-10-11T04:26:47.113Z,98855.94
2022-10-11T04:29:13.966Z,98870.59
2022-10-11T04:31:40.667Z,98876.41
2022-10-11T04:34:07.376Z,98873.56
2022-10-11T04:36:34.112Z,98879.53
2022-10-11T04:39:01.714Z,98868.75
2022-10-11T04:41:29.422Z,98867.28
2022-10-11T04:43:56.227Z,98858.66
2022-10-11T04:46:23.531Z,98883.50
2022-10-11T04:48:50.601Z,98885.88
2022-10-11T04:51:17.857Z,98874.25
2022-10-11T04:53:44.609Z,98878.28
2022-10-11T04:56:12.096Z,98879.16
2022-10-11T04:58:41.011Z,98877.03
2022-10-11T05:01:09.044Z,98887.81
2022-10-11T05:03:36.148Z,98879.91
2022-10-11T05:06:05.926Z,98881.69
2022-10-11T05:08:34.304Z,98877.88
2022-10-11T05:11:04.134Z,98874.56
2022-10-11T05:13:32.391Z,98873.47
2022-10-11T05:15:59.743Z,98887.44
2022-10-11T05:18:27.333Z,98890.16
2022-10-11T05:21:21.292Z,98888.53
2022-10-11T05:23:49.981Z,98888.59
2022-10-11T05:26:18.107Z,98893.56
2022-10-11T05:28:45.305Z,98888.75
2022-10-11T05:31:12.528Z,98888.44
2022-10-11T05:33:39.333Z,98890.81
2022-10-11T05:36:07.524Z,98895.03
2022-10-11T05:38:35.006Z,98890.75
2022-10-11T05:41:02.478Z,98910.91
2022-10-11T05:43:30.041Z,98913.09
2022-10-11T05:45:57.682Z,98906.81
2022-10-11T05:48:26.699Z,98903.75
2022-10-11T05:50:58.405Z,98908.47
2022-10-11T05:53:25.111Z,98910.84
2022-10-11T05:55:51.792Z,98901.03
2022-10-11T05:58:18.876Z,98918.69
2022-10-11T06:00:45.594Z,98921.34
2022-10-11T06:03:13.186Z,98922.63
2022-10-11T06:05:40.139Z,98912.16
2022-10-11T06:08:08.708Z,98917.53
2022-10-11T06:10:36.200Z,98925.47
2022-10-11T06:13:03.035Z,98929.47
2022-10-11T06:15:29.876Z,98931.50
2022-10-11T06:17:56.612Z,98927.00
2022-10-11T06:20:23.411Z,98937.13
2022-10-11T06:22:50.129Z,98940.38
2022-10-11T06:25:16.838Z,98940.88
2022-10-11T06:27:43.541Z,98957.53
2022-10-11T06:30:10.603Z,98962.56
2022-10-11T06:32:37.732Z,98967.44
2022-10-11T06:35:05.628Z,98959.03
2022-10-11T06:37:32.412Z,98975.59
2022-10-11T06:39:59.117Z,98977.63
2022-10-11T06:42:25.844Z,98963.25
2022-10-11T06:44:52.563Z,98975.34
2022-10-11T06:47:19.268Z,98975.88
2022-10-11T06:49:45.982Z,98980.28
2022-10-11T06:52:12.739Z,98986.16
2022-10-11T06:54:44.577Z,98981.25
2022-10-11T06:57:11.936Z,98984.25
2022-10-11T06:59:38.618Z,98967.06
2022-10-11T07:02:05.352Z,99020.63
2022-10-11T07:04:33.856Z,99093.03
2022-10-11T07:07:00.783Z,99102.00
2022-10-11T07:09:27.505Z,99110.22
2022-10-11T07:11:54.228Z,99131.94
2022-10-11T07:14:20.925Z,99131.56
2022-10-11T07:16:47.628Z,99123.94
2022-10-11T07:19:14.385Z,99135.44
2022-10-11T07:21:41.244Z,99140.75
2022-10-11T07:24:08.096Z,99121.50
2022-10-11T07:26:38.907Z,99137.78
2022-10-11T07:29:08.001Z,99136.56
2022-10-11T07:31:39.929Z,99143.44
2022-10-11T07:34:07.132Z,99141.72
2022-10-11T07:36:34.555Z,99136.53
2022-10-11T07:39:04.799Z,99136.69
2022-10-11T07:41:31.489Z,99146.56
2022-10-11T07:43:58.268Z,99138.91
2022-10-11T07:46:25.025Z,99144.63
2022-10-11T07:48:51.750Z,99152.00
2022-10-11T07:51:21.434Z,99149.97
2022-10-11T07:53:50.641Z,99156.16
2022-10-11T07:56:27.732Z,99155.94
2022-10-11T07:59:00.301Z,99156.03
2022-10-11T08:01:28.536Z,99144.50
2022-10-11T08:03:56.947Z,99151.13
2022-10-11T08:06:29.217Z,99154.31
2022-10-11T08:08:56.888Z,99152.03
2022-10-11T08:11:29.737Z,99157.25
2022-10-11T08:13:58.036Z,99151.97
2022-10-11T08:16:25.205Z,99159.06
2022-10-11T08:18:52.034Z,99154.72
2022-10-11T08:21:19.218Z,99159.22
2022-10-11T08:23:46.240Z,99157.38
2022-10-11T08:26:13.236Z,99155.53
2022-10-11T08:28:40.044Z,99154.31
2022-10-11T08:31:07.196Z,99169.81
2022-10-11T08:33:33.799Z,99168.91
2022-10-11T08:36:05.163Z,99167.00
2022-10-11T08:38:32.267Z,99173.78
2022-10-11T08:41:32.756Z,99179.13
2022-10-11T08:44:17.667Z,99179.63
2022-10-11T08:46:50.543Z,99175.84
2022-10-11T08:49:19.881Z,99176.59
2022-10-11T08:51:52.635Z,99173.34
2022-10-11T08:54:31.272Z,99170.16
2022-10-11T08:56:58.024Z,99174.53
2022-10-11T08:59:41.160Z,99169.03
2022-10-11T09:02:55.677Z,99168.66
2022-10-11T09:05:25.642Z,99171.31
2022-10-11T09:08:14.758Z,99176.41
2022-10-11T09:10:44.150Z,99168.84
2022-10-11T09:13:41.564Z,99168.91
2022-10-11T09:16:49.484Z,99165.22
2022-10-11T09:19:53.485Z,99161.97
2022-10-11T09:22:34.395Z,99163.31
2022-10-11T09:25:19.397Z,99166.25
2022-10-11T09:28:04.267Z,99166.81
2022-10-11T09:30:33.020Z,99167.59
2022-10-11T09:33:17.355Z,99169.44
2022-10-11T09:35:50.991Z,99170.03
2022-10-11T09:38:36.714Z,99170.63
2022-10-11T09:41:25.220Z,99174.69
2022-10-11T09:43:52.746Z,99166.59
2022-10-11T09:46:34.726Z,99168.34
2022-10-11T09:49:04.642Z,99180.44
2022-10-11T09:51:31.716Z,99178.75
2022-10-11T09:54:05.001Z,99170.94
2022-10-11T09:56:34.677Z,99169.94
2022-10-11T09:59:28.970Z,99170.97
2022-10-11T10:02:26.607Z,99167.81
2022-10-11T10:04:57.654Z,99168.22
2022-10-11T10:07:24.994Z,99167.66
2022-10-11T10:09:53.109Z,99170.13
2022-10-11T10:12:24.232Z,99174.66
2022-10-11T10:15:17.740Z,99169.97
2022-10-11T10:17:52.198Z,99174.97
2022-10-11T10:20:25.391Z,99171.44
2022-10-11T10:22:52.639Z,99168.00
2022-10-11T10:25:43.371Z,99178.34
2022-10-11T10:28:23.334Z,99169.19
2022-10-11T10:30:55.378Z,99169.63
2022-10-11T10:33:24.821Z,99174.97
2022-10-11T10:35:58.377Z,99168.41
2022-10-11T10:38:38.656Z,99170.50
2022-10-11T10:41:10.954Z,99159.72
2022-10-11T10:43:40.556Z,99168.34
2022-10-11T10:46:22.561Z,99167.69
2022-10-11T10:52:37.593Z,99168.19
2022-10-11T10:55:12.771Z,99178.97
2022-10-11T10:57:59.372Z,99179.28
2022-10-11T11:00:30.533Z,99174.97
2022-10-11T11:03:05.737Z,99168.66
2022-10-11T11:05:53.778Z,99174.75
2022-10-11T11:08:39.222Z,99178.34
2022-10-11T11:11:23.904Z,99169.50
2022-10-11T11:14:23.171Z,99166.34
2022-10-11T11:17:08.510Z,99163.31
2022-10-11T11:19:53.353Z,99165.00
2022-10-11T11:22:22.627Z,99149.91
2022-10-11T11:25:01.308Z,99155.06
2022-10-11T11:27:42.039Z,99148.06
2022-10-11T11:30:27.221Z,99153.25
2022-10-11T11:33:12.116Z,99149.63
2022-10-11T11:35:46.299Z,99143.22
2022-10-11T11:38:37.816Z,99148.28
2022-10-11T11:41:13.333Z,99141.66
2022-10-11T11:43:53.455Z,99141.72
2022-10-11T11:46:29.398Z,99140.34
2022-10-11T11:49:00.413Z,99134.44
2022-10-11T11:51:41.503Z,99138.50
2022-10-11T11:54:35.610Z,99135.25
2022-10-11T11:57:24.191Z,99137.63
2022-10-11T12:00:19.866Z,99132.56
2022-10-11T12:02:52.672Z,99136.25
2022-10-11T12:05:24.873Z,99139.22
2022-10-11T12:07:54.717Z,99126.25
2022-10-11T12:10:28.817Z,99130.69
2022-10-11T12:13:08.439Z,99128.13
2022-10-11T12:15:36.558Z,99125.91
2022-10-11T12:18:12.825Z,99113.25
2022-10-11T12:20:41.746Z,99114.63
2022-10-11T12:23:30.348Z,99120.53
2022-10-11T12:26:18.044Z,99123.38
2022-10-11T12:29:00.346Z,99113.91
2022-10-11T12:31:35.733Z,99122.84
2022-10-11T12:34:02.446Z,99121.53
2022-10-11T12:36:29.721Z,99113.28
2022-10-11T12:39:18.210Z,99113.16
2022-10-11T12:41:47.629Z,99117.84
2022-10-11T12:44:28.754Z,99121.78
2022-10-11T12:46:55.645Z,99114.38
2022-10-11T12:49:33.997Z,99112.97
2022-10-11T12:52:04.246Z,99115.88
2022-10-11T12:54:45.989Z,99111.47
2022-10-11T12:57:34.478Z,99107.88
2022-10-11T13:00:17.978Z,99114.56
2022-10-11T13:02:44.883Z,99113.41
2022-10-11T13:05:23.451Z,99103.97
2022-10-11T13:07:53.183Z,99113.38
2022-10-11T13:10:42.482Z,99110.25
2022-10-11T13:13:29.267Z,99101.81
2022-10-11T13:15:59.043Z,99106.66
2022-10-11T13:18:26.515Z,99099.53
2022-10-11T13:20:53.389Z,99112.16
2022-10-11T13:23:30.013Z,99114.88
2022-10-11T13:25:56.868Z,99112.16
2022-10-11T13:28:24.010Z,99104.56
2022-10-11T13:30:56.303Z,99102.69
2022-10-11T13:33:32.110Z,99104.25
2022-10-11T13:36:04.675Z,99109.81
2022-10-11T13:38:35.195Z,99103.72
2022-10-11T13:41:05.201Z,99110.28
2022-10-11T13:43:32.809Z,99113.91
2022-10-11T13:46:08.939Z,99109.09
2022-10-11T13:48:42.949Z,99106.66
2022-10-11T13:51:17.923Z,99118.03
2022-10-11T13:54:03.799Z,99105.81
2022-10-11T13:56:36.034Z,99103.97
2022-10-11T13:59:03.303Z,99107.19
2022-10-11T14:01:44.020Z,99106.00
2022-10-11T14:04:13.457Z,99105.97
2022-10-11T14:06:49.224Z,99107.16
2022-10-11T14:09:27.089Z,99101.94
2022-10-11T14:11:54.494Z,99095.53
2022-10-11T14:14:33.212Z,99093.59
2022-10-11T14:17:14.464Z,99097.63
2022-10-11T14:19:42.656Z,99093.56
2022-10-11T14:22:16.399Z,99093.22
2022-10-11T14:24:47.319Z,99095.31
2022-10-11T14:27:19.423Z,99092.28
2022-10-11T14:30:00.571Z,99091.41
2022-10-11T14:32:34.807Z,99102.34
2022-10-11T14:35:01.555Z,99093.06
2022-10-11T14:37:28.268Z,99103.19
2022-10-11T14:39:54.968Z,99096.50
2022-10-11T14:42:21.664Z,99096.06
2022-10-11T14:44:48.345Z,99089.44
2022-10-11T14:47:16.843Z,99095.78
2022-10-11T14:49:43.708Z,99096.00
2022-10-11T14:52:11.809Z,99099.25
2022-10-11T14:54:38.666Z,99094.88
2022-10-11T14:57:08.351Z,99095.34
2022-10-11T14:59:37.765Z,99093.50
2022-10-11T15:02:07.258Z,99090.28
2022-10-11T15:04:34.412Z,99087.75
2022-10-11T15:07:01.628Z,99088.44
2022-10-11T15:09:28.695Z,99088.09
2022-10-11T15:11:55.468Z,99089.25
2022-10-11T15:14:24.017Z,99090.25
2022-10-11T15:16:51.715Z,99093.28
2022-10-11T15:19:21.928Z,99093.44
2022-10-11T15:21:49.491Z,99096.81
2022-10-11T15:24:16.591Z,99096.31
2022-10-11T15:26:44.049Z,99089.38
2022-10-11T15:29:12.703Z,99085.75
2022-10-11T15:31:39.756Z,99089.56
2022-10-11T15:34:06.553Z,99086.16
2022-10-11T15:36:33.316Z,99090.03
2022-10-11T15:39:00.054Z,99090.19
2022-10-11T15:41:26.868Z,99091.84
2022-10-11T15:43:53.700Z,99096.88
2022-10-11T15:46:22.785Z,99087.25
2022-10-11T15:48:51.859Z,99092.59
2022-10-11T15:51:18.678Z,99093.84
2022-10-11T15:53:45.456Z,99093.78
2022-10-11T15:56:19.375Z,99094.19
2022-10-11T15:58:46.273Z,99096.69
2022-10-11T16:01:18.786Z,99101.72
2022-10-11T16:03:47.722Z,99104.75
2022-10-11T16:06:15.377Z,99101.38
2022-10-11T16:08:42.073Z,99114.06
2022-10-11T16:11:10.135Z,99111.38
2022-10-11T16:13:37.513Z,99119.41
2022-10-11T16:16:07.065Z,99124.84
2022-10-11T16:18:35.819Z,99125.06
2022-10-11T16:21:09.371Z,99134.09
2022-10-11T16:23:36.856Z,99136.81
2022-10-11T16:26:07.137Z,99134.88
2022-10-11T16:28:34.377Z,99140.69
2022-10-11T16:31:05.539Z,99136.88
2022-10-11T16:33:32.338Z,99141.06
2022-10-11T16:36:18.961Z,99144.03
2022-10-11T16:38:45.891Z,99144.44
2022-10-11T16:41:12.416Z,99157.84
2022-10-11T16:43:39.124Z,99152.84
2022-10-11T16:46:06.026Z,99165.78
2022-10-11T16:48:32.944Z,99166.13
2022-10-11T16:51:07.223Z,99165.66
2022-10-11T16:53:35.445Z,99166.75
2022-10-11T16:56:09.990Z,99170.19
2022-10-11T16:58:37.537Z,99167.47
2022-10-11T17:01:08.963Z,99173.31
2022-10-11T17:03:35.852Z,99176.38
2022-10-11T17:06:03.082Z,99172.19
2022-10-11T17:08:30.230Z,99178.31
2022-10-11T17:10:57.873Z,99177.88
2022-10-11T17:13:25.271Z,99183.81
2022-10-11T17:15:52.262Z,99177.28
2022-10-11T17:18:18.888Z,99182.38
2022-10-11T17:20:51.819Z,99192.56
2022-10-11T17:23:19.211Z,99189.88
2022-10-11T17:25:47.371Z,99188.19
2022-10-11T17:28:14.656Z,99192.91
2022-10-11T17:30:42.461Z,99191.06
2022-10-11T17:33:09.770Z,99192.28
2022-10-11T17:35:36.902Z,99199.22
2022-10-11T17:38:06.119Z,99190.69
2022-10-11T17:40:33.229Z,99197.97
2022-10-11T17:42:59.937Z,99193.44
2022-10-11T17:45:26.660Z,99202.53
2022-10-11T17:47:53.998Z,99206.41
2022-10-11T17:50:20.839Z,99207.59
2022-10-11T17:52:47.755Z,99206.25
2022-10-11T17:55:14.738Z,99211.06
2022-10-11T17:57:41.471Z,99208.03
2022-10-11T18:00:08.877Z,99211.03
2022-10-11T18:02:35.647Z,99204.25
2022-10-11T18:05:03.331Z,99200.09
2022-10-11T18:07:30.141Z,99213.84
2022-10-11T18:09:57.062Z,99210.19
2022-10-11T18:12:23.911Z,99203.16
2022-10-11T18:14:51.193Z,99209.09
2022-10-11T18:17:18.949Z,99208.88
2022-10-11T18:19:45.672Z,99213.84
2022-10-11T18:22:12.384Z,99223.53
2022-10-11T18:24:39.229Z,99211.81
2022-10-11T18:27:06.018Z,99218.97
2022-10-11T18:29:33.188Z,99216.88
2022-10-11T18:31:59.901Z,99232.56
2022-10-11T18:34:26.584Z,99234.09
2022-10-11T18:36:53.296Z,99227.59
2022-10-11T18:39:21.812Z,99219.09
2022-10-11T18:41:48.527Z,99228.38
2022-10-11T18:44:16.699Z,99220.84
2022-10-11T18:46:44.804Z,99223.59
2022-10-11T18:49:12.363Z,99228.81
2022-10-11T18:51:41.152Z,99225.19
2022-10-11T18:54:12.056Z,99215.81
2022-10-11T18:56:41.120Z,99226.25
2022-10-11T18:59:07.958Z,99221.16
2022-10-11T19:01:38.329Z,99220.63
2022-10-11T19:04:06.519Z,99221.91
2022-10-11T19:06:36.461Z,99225.88
2022-10-11T19:09:08.553Z,99228.97
2022-10-11T19:11:37.037Z,99225.78
2022-10-11T19:14:07.189Z,99223.44
2022-10-11T19:16:37.949Z,99224.63
2022-10-11T19:19:06.597Z,99219.81
2022-10-11T19:21:34.004Z,99233.53
2022-10-11T19:24:01.906Z,99230.69
2022-10-11T19:26:34.029Z,99238.56
2022-10-11T19:29:14.761Z,99237.25
2022-10-11T19:31:44.606Z,99228.06
2022-10-11T19:34:12.067Z,99234.25
2022-10-11T19:36:39.517Z,99240.72
2022-10-11T19:39:06.506Z,99243.47
2022-10-11T19:41:33.418Z,99240.81
2022-10-11T19:44:00.245Z,99233.88
2022-10-11T19:46:49.828Z,99236.56
2022-10-11T19:49:17.869Z,99236.75
2022-10-11T19:51:45.388Z,99234.53
2022-10-11T19:54:14.384Z,99238.84
2022-10-11T19:56:42.607Z,99230.72
2022-10-11T19:59:11.163Z,99220.13
2022-10-11T20:01:38.866Z,99214.19
2022-10-11T20:04:07.921Z,99208.31
2022-10-11T20:06:38.540Z,99207.63
2022-10-11T20:09:28.627Z,99217.06
2022-10-11T20:11:56.978Z,99218.91
2022-10-11T20:14:23.853Z,99213.59
2022-10-11T20:16:51.064Z,99205.34
2022-10-11T20:19:18.924Z,99214.19
2022-10-11T20:21:46.035Z,99206.31
2022-10-11T20:24:12.977Z,99216.84
2022-10-11T20:26:40.449Z,99210.88
2022-10-11T20:29:07.656Z,99220.38
2022-10-11T20:31:40.639Z,99220.19
2022-10-11T20:34:07.709Z,99209.66
2022-10-11T20:36:36.238Z,99214.31
2022-10-11T20:39:04.644Z,99210.34
2022-10-11T20:41:34.652Z,99215.91
2022-10-11T20:44:03.108Z,99225.00
2022-10-11T20:46:34.728Z,99218.38
2022-10-11T20:49:04.463Z,99225.84
2022-10-11T20:51:33.740Z,99223.50
2022-10-11T20:54:02.052Z,99225.66
2022-10-11T20:56:29.755Z,99217.69
2022-10-11T20:58:57.990Z,99216.06
2022-10-11T21:01:37.113Z,99219.31
2022-10-11T21:04:05.630Z,99216.66
2022-10-11T21:06:33.495Z,99216.56
2022-10-11T21:09:01.082Z,99216.56
2022-10-11T21:11:29.755Z,99214.19
2022-10-11T21:13:57.927Z,99216.72
2022-10-11T21:16:25.290Z,99221.13
2022-10-11T21:18:53.612Z,99216.56
2022-10-11T21:21:20.467Z,99214.97
2022-10-11T21:23:47.613Z,99218.00
2022-10-11T21:26:14.662Z,99225.66
2022-10-11T21:28:41.407Z,99225.47
2022-10-11T21:31:10.608Z,99220.00
2022-10-11T21:33:38.197Z,99233.28
2022-10-11T21:36:06.953Z,99226.63
2022-10-11T21:38:34.636Z,99222.63
2022-10-11T21:41:10.063Z,99217.31
2022-10-11T21:43:38.325Z,99216.94
2022-10-11T21:46:15.956Z,99206.59
2022-10-11T21:48:42.788Z,99200.53
2022-10-11T21:51:15.612Z,99196.00
2022-10-11T21:53:42.430Z,99201.38
2022-10-11T21:56:09.233Z,99188.59
2022-10-11T21:58:35.936Z,99179.09
2022-10-11T22:01:03.170Z,99179.88
2022-10-11T22:03:29.965Z,99174.25
2022-10-11T22:05:56.660Z,99178.91
2022-10-11T22:08:23.385Z,99179.56
2022-10-11T22:10:55.507Z,99178.44
2022-10-11T22:13:22.263Z,99175.88
2022-10-11T22:15:49.274Z,99179.09
2022-10-11T22:18:16.561Z,99173.50
2022-10-11T22:20:43.863Z,99176.81
2022-10-11T22:23:11.535Z,99168.78
2022-10-11T22:25:39.831Z,99173.25
2022-10-11T22:28:07.167Z,99170.66
2022-10-11T22:30:34.577Z,99167.72
2022-10-11T22:33:01.283Z,99163.91
2022-10-11T22:35:28.004Z,99167.13
2022-10-11T22:37:54.704Z,99166.38
2022-10-11T22:40:21.414Z,99168.03
2022-10-11T22:42:48.189Z,99176.91
2022-10-11T22:45:14.957Z,99177.59
2022-10-11T22:47:41.680Z,99167.63
2022-10-11T22:50:08.779Z,99168.94
2022-10-11T22:52:35.330Z,99169.56
2022-10-11T22:55:02.019Z,99178.28
2022-10-11T22:57:29.632Z,99174.09
2022-10-11T22:59:56.377Z,99182.63
2022-10-11T23:02:23.066Z,99176.75
2022-10-11T23:04:49.845Z,99171.50
2022-10-11T23:07:16.543Z,99163.75
2022-10-11T23:09:43.299Z,99170.59
2022-10-11T23:12:09.984Z,99160.69
2022-10-11T23:14:36.671Z,99168.66
2022-10-11T23:17:03.363Z,99172.47
2022-10-11T23:19:30.056Z,99169.06
2022-10-11T23:21:56.783Z,99171.50
2022-10-11T23:24:23.540Z,99166.97
2022-10-11T23:26:50.275Z,99166.97
2022-10-11T23:29:17.042Z,99173.69
2022-10-11T23:31:44.534Z,99171.69
2022-10-11T23:34:11.256Z,99177.75
2022-10-11T23:36:37.986Z,99170.00
2022-10-11T23:39:04.741Z,99180.25
2022-10-11T23:41:31.724Z,99183.03
2022-10-11T23:43:58.678Z,99184.13
2022-10-11T23:46:25.706Z,99187.09
2022-10-11T23:48:52.386Z,99175.78
2022-10-11T23:51:19.135Z,99169.06
2022-10-11T23:53:45.805Z,99173.31
2022-10-11T23:56:12.636Z,99170.78
2022-10-11T23:58:39.517Z,99174.38
